Time;durP1;ratioP1;P1;durP2;ratioP2;P2;SDS_P1;SDS_P2;PMS_P1;PMS_P2;Temp;Humidity;BMP_temperature;BMP_pressure;BME280_temperature;BME280_humidity;BME280_pressure;Samples;Min_cycle;Max_cycle;Signal;HPM_P1;HPM_P2
2024/03/15 00:02:00;;;;;;;0.70;0.60;;;;;;;;;;5079570;28;20472;-71
2024/03/15 00:04:25;;;;;;;0.23;0.23;;;;;;;;;;5102531;28;20098;-71
2024/03/15 00:06:50;;;;;;;0.10;0.10;;;;;;;;;;5114077;28;20111;-71
2024/03/15 00:09:16;;;;;;;0.03;0.03;;;;;;;;;;5114023;28;20276;-71
2024/03/15 00:11:41;;;;;;;0.00;0.00;;;;;;;;;;5113334;28;20050;-70
2024/03/15 00:14:06;;;;;;;0.30;0.30;;;;;;;;;;5094152;28;20031;-71
2024/03/15 00:16:31;;;;;;;0.00;0.00;;;;;;;;;;5094130;28;20027;-71
2024/03/15 00:18:58;;;;;;;0.20;0.20;;;;;;;;;;5094050;28;20024;-71
2024/03/15 00:21:23;;;;;;;0.32;0.32;;;;;;;;;;5094130;28;20388;-71
2024/03/15 00:23:51;;;;;;;0.08;0.08;;;;;;;;;;5093956;28;20020;-71
2024/03/15 00:26:16;;;;;;;0.17;0.17;;;;;;;;;;5094196;28;20407;-71
2024/03/15 00:28:41;;;;;;;0.47;0.47;;;;;;;;;;5093861;28;20024;-71
2024/03/15 00:31:07;;;;;;;0.27;0.27;;;;;;;;;;5093528;28;20044;-71
2024/03/15 00:33:32;;;;;;;0.20;0.20;;;;;;;;;;5093923;28;20260;-70
2024/03/15 00:35:57;;;;;;;0.10;0.10;;;;;;;;;;5093913;28;20082;-71
2024/03/15 00:38:22;;;;;;;0.10;0.10;;;;;;;;;;5094852;28;20487;-71
2024/03/15 00:40:48;;;;;;;0.10;0.10;;;;;;;;;;5093781;28;20032;-70
2024/03/15 00:43:15;;;;;;;0.15;0.15;;;;;;;;;;5093824;28;20012;-70
2024/03/15 00:45:41;;;;;;;0.20;0.20;;;;;;;;;;5094691;28;20024;-71
2024/03/15 00:48:06;;;;;;;0.30;0.30;;;;;;;;;;5093601;28;20023;-71
2024/03/15 00:50:32;;;;;;;0.05;0.05;;;;;;;;;;5093524;28;20089;-71
2024/03/15 00:52:57;;;;;;;0.00;0.00;;;;;;;;;;5093546;28;20106;-71
2024/03/15 00:55:23;;;;;;;0.32;0.32;;;;;;;;;;5093753;28;20264;-64
2024/03/15 00:57:48;;;;;;;0.00;0.00;;;;;;;;;;5093727;28;20054;-64
2024/03/15 01:00:13;;;;;;;0.10;0.10;;;;;;;;;;5110247;28;20019;-65
2024/03/15 01:02:39;;;;;;;0.40;0.40;;;;;;;;;;5113031;28;20379;-64
2024/03/15 01:05:05;;;;;;;0.63;0.20;;;;;;;;;;5113168;28;20313;-64
2024/03/15 01:07:30;;;;;;;0.00;0.00;;;;;;;;;;5113035;28;20743;-64
2024/03/15 01:09:55;;;;;;;1.17;0.63;;;;;;;;;;5110151;28;20046;-64
2024/03/15 01:12:21;;;;;;;0.10;0.10;;;;;;;;;;5093255;28;20256;-64
2024/03/15 01:14:46;;;;;;;0.10;0.10;;;;;;;;;;5110131;28;20023;-64
2024/03/15 01:17:11;;;;;;;0.10;0.10;;;;;;;;;;5093258;28;20264;-64
2024/03/15 01:19:36;;;;;;;0.10;0.10;;;;;;;;;;5093174;28;20383;-64
2024/03/15 01:22:01;;;;;;;0.10;0.10;;;;;;;;;;5093216;28;20024;-64
2024/03/15 01:24:28;;;;;;;0.43;0.40;;;;;;;;;;5093212;28;20056;-64
2024/03/15 01:26:53;;;;;;;0.20;0.20;;;;;;;;;;5093096;28;20012;-64
2024/03/15 01:29:18;;;;;;;0.10;0.10;;;;;;;;;;5093105;28;20043;-64
2024/03/15 01:31:44;;;;;;;0.17;0.17;;;;;;;;;;5092809;28;20052;-64
2024/03/15 01:34:09;;;;;;;0.73;0.52;;;;;;;;;;5093251;28;20253;-64
2024/03/15 01:36:34;;;;;;;0.30;0.30;;;;;;;;;;5101649;28;20019;-64
2024/03/15 01:38:59;;;;;;;0.13;0.13;;;;;;;;;;5113253;28;20102;-64
2024/03/15 01:41:25;;;;;;;0.00;0.00;;;;;;;;;;5113332;28;20382;-64
2024/03/15 01:43:51;;;;;;;0.10;0.10;;;;;;;;;;5102245;28;20623;-64
2024/03/15 01:46:16;;;;;;;0.57;0.25;;;;;;;;;;5093002;28;20020;-64
2024/03/15 01:48:42;;;;;;;0.08;0.08;;;;;;;;;;5093133;28;20049;-65
2024/03/15 01:51:08;;;;;;;0.32;0.32;;;;;;;;;;5093156;28;20473;-64
2024/03/15 01:53:34;;;;;;;3.50;1.00;;;;;;;;;;5093088;28;20027;-64
2024/03/15 01:56:00;;;;;;;0.20;0.20;;;;;;;;;;5093123;28;20027;-64
2024/03/15 01:58:25;;;;;;;0.10;0.10;;;;;;;;;;5093142;28;20024;-64
2024/03/15 02:00:51;;;;;;;0.13;0.13;;;;;;;;;;5092726;28;20106;-64
2024/03/15 02:03:16;;;;;;;0.10;0.10;;;;;;;;;;5092775;28;20331;-64
2024/03/15 02:05:43;;;;;;;0.00;0.00;;;;;;;;;;5092903;28;20020;-64
2024/03/15 02:08:09;;;;;;;0.10;0.10;;;;;;;;;;5092655;28;20109;-64
2024/03/15 02:10:34;;;;;;;0.30;0.30;;;;;;;;;;5092987;28;20087;-64
2024/03/15 02:13:01;;;;;;;0.10;0.10;;;;;;;;;;5092736;28;20105;-64
2024/03/15 02:15:26;;;;;;;0.03;0.03;;;;;;;;;;5094431;28;20028;-64
2024/03/15 02:17:53;;;;;;;0.10;0.10;;;;;;;;;;5113086;28;20387;-64
2024/03/15 02:20:21;;;;;;;0.20;0.20;;;;;;;;;;5116076;28;20028;-64
2024/03/15 02:22:47;;;;;;;0.00;0.00;;;;;;;;;;5115759;28;20110;-64
2024/03/15 02:25:13;;;;;;;0.30;0.30;;;;;;;;;;5116058;28;20065;-64
2024/03/15 02:27:38;;;;;;;0.40;0.40;;;;;;;;;;5116022;28;20024;-64
2024/03/15 02:30:05;;;;;;;0.00;0.00;;;;;;;;;;5115384;28;20032;-64
2024/03/15 02:32:30;;;;;;;0.10;0.10;;;;;;;;;;5116104;28;20291;-64
2024/03/15 02:34:56;;;;;;;0.27;0.27;;;;;;;;;;5115813;28;20054;-64
2024/03/15 02:37:21;;;;;;;1.60;0.73;;;;;;;;;;5115894;28;20382;-64
2024/03/15 02:39:46;;;;;;;0.20;0.20;;;;;;;;;;5100806;28;20030;-64
2024/03/15 02:42:12;;;;;;;0.10;0.10;;;;;;;;;;5096131;28;20016;-64
2024/03/15 02:44:37;;;;;;;0.00;0.00;;;;;;;;;;5095926;28;20016;-64
2024/03/15 02:47:03;;;;;;;0.00;0.00;;;;;;;;;;5095916;28;20486;-64
2024/03/15 02:49:28;;;;;;;0.10;0.10;;;;;;;;;;5095978;28;20529;-64
2024/03/15 02:51:54;;;;;;;0.30;0.27;;;;;;;;;;5095755;28;20024;-64
2024/03/15 02:54:19;;;;;;;0.08;0.08;;;;;;;;;;5095955;28;20336;-63
2024/03/15 02:56:44;;;;;;;0.43;0.43;;;;;;;;;;5095590;28;20031;-64
2024/03/15 02:59:10;;;;;;;0.00;0.00;;;;;;;;;;5095787;28;20260;-64
2024/03/15 03:01:35;;;;;;;0.10;0.10;;;;;;;;;;5095417;28;20065;-64
2024/03/15 03:04:00;;;;;;;0.40;0.40;;;;;;;;;;5095761;28;20059;-64
2024/03/15 03:06:26;;;;;;;0.20;0.20;;;;;;;;;;5095461;28;20099;-64
2024/03/15 03:09:06;;;;;;;0.10;0.10;;;;;;;;;;5095286;28;20302;-64
2024/03/15 03:11:31;;;;;;;0.00;0.00;;;;;;;;;;5095291;28;20107;-64
2024/03/15 03:13:58;;;;;;;0.33;0.33;;;;;;;;;;5103615;28;20063;-64
2024/03/15 03:16:23;;;;;;;0.13;0.08;;;;;;;;;;5095262;28;20279;-71
2024/03/15 03:18:48;;;;;;;0.10;0.10;;;;;;;;;;5095220;28;20024;-71
2024/03/15 03:21:14;;;;;;;0.10;0.10;;;;;;;;;;5095007;28;20073;-71
2024/03/15 03:23:39;;;;;;;0.10;0.10;;;;;;;;;;5095110;28;20357;-71
2024/03/15 03:26:05;;;;;;;0.07;0.07;;;;;;;;;;5095173;28;20043;-71
2024/03/15 03:28:30;;;;;;;0.10;0.10;;;;;;;;;;5095259;28;20496;-71
2024/03/15 03:30:55;;;;;;;0.30;0.20;;;;;;;;;;5093718;28;20173;-71
2024/03/15 03:33:21;;;;;;;0.00;0.00;;;;;;;;;;5095159;28;20459;-71
2024/03/15 03:35:46;;;;;;;0.00;0.00;;;;;;;;;;5106551;28;20053;-71
2024/03/15 03:38:11;;;;;;;0.00;0.00;;;;;;;;;;5115527;28;20379;-71
2024/03/15 03:40:36;;;;;;;0.20;0.20;;;;;;;;;;5115252;28;20049;-71
2024/03/15 03:43:02;;;;;;;0.73;0.50;;;;;;;;;;5115141;28;20244;-71
2024/03/15 03:45:27;;;;;;;0.10;0.10;;;;;;;;;;5115132;28;20020;-71
2024/03/15 03:47:53;;;;;;;0.10;0.10;;;;;;;;;;5108212;28;20024;-71
2024/03/15 03:50:19;;;;;;;0.03;0.03;;;;;;;;;;5094790;28;20030;-70
2024/03/15 03:52:45;;;;;;;0.08;0.08;;;;;;;;;;5094573;28;20094;-71
2024/03/15 03:55:10;;;;;;;0.00;0.00;;;;;;;;;;5094427;28;20028;-70
2024/03/15 03:57:39;;;;;;;0.20;0.10;;;;;;;;;;5094484;28;20115;-71
2024/03/15 04:00:05;;;;;;;0.00;0.00;;;;;;;;;;5094300;28;20337;-71
2024/03/15 04:02:31;;;;;;;0.35;0.30;;;;;;;;;;5094610;28;20024;-71
2024/03/15 04:04:57;;;;;;;0.00;0.00;;;;;;;;;;5094274;28;20031;-71
2024/03/15 04:07:27;;;;;;;0.10;0.10;;;;;;;;;;5094357;28;20016;-71
2024/03/15 04:09:52;;;;;;;0.10;0.10;;;;;;;;;;5094189;28;20028;-70
2024/03/15 04:12:17;;;;;;;0.17;0.17;;;;;;;;;;5094475;28;20397;-71
2024/03/15 04:14:44;;;;;;;0.10;0.10;;;;;;;;;;5101085;28;20507;-70
2024/03/15 04:17:09;;;;;;;0.40;0.40;;;;;;;;;;5113597;28;20386;-70
2024/03/15 04:19:34;;;;;;;0.03;0.03;;;;;;;;;;5100662;28;20016;-71
2024/03/15 04:22:00;;;;;;;0.00;0.00;;;;;;;;;;5093998;28;20050;-70
2024/03/15 04:24:25;;;;;;;0.98;0.43;;;;;;;;;;5094183;28;20284;-71
2024/03/15 04:26:50;;;;;;;0.00;0.00;;;;;;;;;;5094172;28;20031;-71
2024/03/15 04:29:17;;;;;;;0.00;0.00;;;;;;;;;;5093827;28;20042;-71
2024/03/15 04:31:42;;;;;;;0.10;0.10;;;;;;;;;;5093518;28;20044;-71
2024/03/15 04:34:09;;;;;;;0.00;0.00;;;;;;;;;;5093769;28;20054;-71
2024/03/15 04:36:35;;;;;;;0.10;0.10;;;;;;;;;;5094037;28;20085;-71
2024/03/15 04:39:00;;;;;;;0.20;0.20;;;;;;;;;;5105746;28;20652;-71
2024/03/15 04:41:26;;;;;;;0.47;0.47;;;;;;;;;;5113075;28;20044;-70
2024/03/15 04:43:51;;;;;;;0.20;0.20;;;;;;;;;;5113065;28;20028;-71
2024/03/15 04:46:17;;;;;;;0.30;0.20;;;;;;;;;;5113676;28;20092;-71
2024/03/15 04:48:43;;;;;;;0.00;0.00;;;;;;;;;;5113646;28;20504;-71
2024/03/15 04:51:08;;;;;;;0.40;0.40;;;;;;;;;;5113299;28;20023;-71
2024/03/15 04:53:33;;;;;;;0.10;0.10;;;;;;;;;;5113317;28;20425;-71
2024/03/15 04:55:59;;;;;;;14.10;0.47;;;;;;;;;;5113582;28;20053;-71
2024/03/15 04:58:28;;;;;;;0.00;0.00;;;;;;;;;;5112913;28;20286;-71
2024/03/15 05:00:53;;;;;;;0.90;0.73;;;;;;;;;;5113385;28;20425;-71
2024/03/15 05:03:18;;;;;;;0.40;0.40;;;;;;;;;;5112870;28;20016;-71
2024/03/15 05:05:44;;;;;;;0.10;0.10;;;;;;;;;;5113090;28;20028;-70
2024/03/15 05:08:10;;;;;;;0.50;0.40;;;;;;;;;;5113099;28;20020;-70
2024/03/15 05:10:36;;;;;;;0.03;0.03;;;;;;;;;;5094553;28;20055;-71
2024/03/15 05:13:02;;;;;;;0.25;0.22;;;;;;;;;;5113049;28;20039;-71
2024/03/15 05:15:27;;;;;;;0.00;0.00;;;;;;;;;;5097168;28;20019;-71
2024/03/15 05:17:52;;;;;;;0.30;0.30;;;;;;;;;;5100092;28;20028;-71
2024/03/15 05:20:18;;;;;;;0.27;0.27;;;;;;;;;;5106535;28;20036;-71
2024/03/15 05:22:46;;;;;;;0.80;0.57;;;;;;;;;;5098226;28;20349;-70
2024/03/15 05:25:14;;;;;;;0.10;0.10;;;;;;;;;;5094175;28;20024;-71
2024/03/15 05:27:39;;;;;;;0.10;0.10;;;;;;;;;;5093373;28;20037;-71
2024/03/15 05:30:05;;;;;;;0.30;0.28;;;;;;;;;;5093124;28;20102;-71
2024/03/15 05:32:30;;;;;;;0.45;0.45;;;;;;;;;;5092655;28;20054;-71
2024/03/15 05:34:55;;;;;;;0.10;0.10;;;;;;;;;;5092485;28;20024;-64
2024/03/15 05:37:21;;;;;;;0.20;0.20;;;;;;;;;;5109597;28;20074;-64
2024/03/15 05:39:46;;;;;;;0.30;0.28;;;;;;;;;;5109318;28;20260;-64
2024/03/15 05:42:11;;;;;;;0.20;0.15;;;;;;;;;;5111149;28;20065;-64
2024/03/15 05:44:37;;;;;;;0.17;0.17;;;;;;;;;;5095901;28;20069;-64
2024/03/15 05:47:02;;;;;;;0.10;0.10;;;;;;;;;;5091864;28;20024;-64
2024/03/15 05:49:27;;;;;;;0.30;0.30;;;;;;;;;;5091455;28;20268;-64
2024/03/15 05:51:52;;;;;;;0.70;0.70;;;;;;;;;;5091800;28;20268;-64
2024/03/15 05:54:18;;;;;;;0.20;0.20;;;;;;;;;;5112420;28;20354;-65
2024/03/15 05:56:43;;;;;;;0.20;0.20;;;;;;;;;;5110414;28;20303;-64
2024/03/15 05:59:10;;;;;;;0.52;0.52;;;;;;;;;;5096808;28;20032;-64
2024/03/15 06:01:35;;;;;;;0.55;0.55;;;;;;;;;;5097909;28;20047;-64
2024/03/15 06:04:01;;;;;;;0.20;0.20;;;;;;;;;;5101250;28;20467;-64
2024/03/15 06:06:26;;;;;;;0.60;0.33;;;;;;;;;;5095471;28;20028;-65
2024/03/15 06:08:51;;;;;;;0.27;0.20;;;;;;;;;;5115346;28;20062;-64
2024/03/15 06:11:16;;;;;;;0.10;0.10;;;;;;;;;;5115477;28;20023;-64
2024/03/15 06:13:41;;;;;;;0.45;0.45;;;;;;;;;;5115039;28;20335;-64
2024/03/15 06:16:10;;;;;;;0.10;0.10;;;;;;;;;;5104191;28;20032;-64
2024/03/15 06:18:35;;;;;;;0.10;0.10;;;;;;;;;;5089409;28;20028;-64
2024/03/15 06:21:01;;;;;;;0.10;0.10;;;;;;;;;;5091724;28;20463;-64
2024/03/15 06:23:27;;;;;;;0.00;0.00;;;;;;;;;;5087270;28;20761;-64
2024/03/15 06:25:52;;;;;;;0.35;0.35;;;;;;;;;;5095446;28;20284;-64
2024/03/15 06:28:19;;;;;;;0.43;0.30;;;;;;;;;;5095086;28;20058;-64
2024/03/15 06:30:53;;;;;;;0.22;0.22;;;;;;;;;;5094848;28;20028;-64
2024/03/15 06:33:18;;;;;;;2.20;1.35;;;;;;;;;;5094289;28;20035;-64
2024/03/15 06:35:50;;;;;;;0.05;0.05;;;;;;;;;;5085786;28;20028;-64
2024/03/15 06:38:30;;;;;;;0.15;0.15;;;;;;;;;;5083559;28;20517;-64
2024/03/15 06:44:04;;;;;;;0.47;0.47;;;;;;;;;;5066673;28;20438;-64
2024/03/15 06:46:30;;;;;;;0.40;0.40;;;;;;;;;;5095446;28;20024;-64
2024/03/15 06:48:59;;;;;;;1.85;0.22;;;;;;;;;;5094518;28;20052;-64
2024/03/15 06:54:09;;;;;;;0.17;0.17;;;;;;;;;;5087061;28;20109;-64
2024/03/15 06:56:35;;;;;;;0.00;0.00;;;;;;;;;;5095478;28;20051;-64
2024/03/15 06:59:00;;;;;;;0.25;0.25;;;;;;;;;;5086873;28;20272;-64
2024/03/15 07:01:28;;;;;;;0.43;0.43;;;;;;;;;;5093838;28;20130;-64
2024/03/15 07:03:53;;;;;;;0.35;0.35;;;;;;;;;;5094041;28;20108;-65
2024/03/15 07:06:20;;;;;;;0.15;0.15;;;;;;;;;;5086042;28;20052;-64
2024/03/15 07:08:51;;;;;;;0.22;0.22;;;;;;;;;;5087669;28;20088;-64
2024/03/15 07:11:16;;;;;;;0.47;0.47;;;;;;;;;;5087110;28;20099;-64
2024/03/15 07:13:41;;;;;;;0.47;0.47;;;;;;;;;;5094380;28;20051;-64
2024/03/15 07:16:07;;;;;;;0.50;0.50;;;;;;;;;;5094630;28;20281;-63
2024/03/15 07:18:33;;;;;;;0.47;0.32;;;;;;;;;;5088484;28;20261;-64
2024/03/15 07:20:58;;;;;;;0.30;0.17;;;;;;;;;;5091706;28;20028;-64
2024/03/15 07:23:25;;;;;;;0.23;0.23;;;;;;;;;;5082529;28;20027;-64
2024/03/15 07:25:51;;;;;;;0.68;0.68;;;;;;;;;;5090179;28;20479;-64
2024/03/15 07:28:18;;;;;;;0.10;0.10;;;;;;;;;;5080076;28;20095;-64
2024/03/15 07:30:46;;;;;;;0.63;0.50;;;;;;;;;;5089885;28;20087;-64
2024/03/15 07:33:11;;;;;;;0.22;0.22;;;;;;;;;;5076201;28;20103;-64
2024/03/15 07:35:36;;;;;;;0.75;0.68;;;;;;;;;;5094742;28;20158;-63
2024/03/15 07:38:04;;;;;;;0.30;0.30;;;;;;;;;;5084459;28;20093;-64
2024/03/15 07:40:29;;;;;;;0.20;0.20;;;;;;;;;;5075080;28;20059;-64
2024/03/15 07:42:56;;;;;;;0.05;0.05;;;;;;;;;;5085729;28;20096;-64
2024/03/15 07:45:21;;;;;;;0.05;0.05;;;;;;;;;;5114939;28;20054;-64
2024/03/15 07:47:47;;;;;;;0.73;0.73;;;;;;;;;;5103940;28;20059;-64
2024/03/15 07:50:12;;;;;;;0.08;0.08;;;;;;;;;;5094240;28;20032;-64
2024/03/15 07:52:38;;;;;;;0.20;0.20;;;;;;;;;;5094524;28;20088;-63
2024/03/15 07:55:03;;;;;;;0.20;0.20;;;;;;;;;;5094316;28;20249;-64
2024/03/15 07:57:29;;;;;;;0.52;0.45;;;;;;;;;;5094112;28;20013;-64
2024/03/15 07:59:55;;;;;;;0.30;0.30;;;;;;;;;;5085184;28;20055;-64
2024/03/15 08:02:24;;;;;;;0.45;0.30;;;;;;;;;;5093560;28;20020;-64
2024/03/15 08:04:50;;;;;;;0.10;0.03;;;;;;;;;;5090858;28;20016;-64
2024/03/15 08:07:15;;;;;;;0.17;0.17;;;;;;;;;;5086148;28;20406;-64
2024/03/15 08:09:41;;;;;;;0.10;0.10;;;;;;;;;;5086097;28;20062;-64
2024/03/15 08:12:07;;;;;;;0.10;0.10;;;;;;;;;;5097943;28;20016;-64
2024/03/15 08:14:35;;;;;;;0.30;0.30;;;;;;;;;;5083602;28;20779;-64
2024/03/15 08:17:03;;;;;;;0.08;0.08;;;;;;;;;;5092833;28;20028;-64
2024/03/15 08:19:28;;;;;;;0.20;0.20;;;;;;;;;;5084948;28;20467;-64
2024/03/15 08:21:53;;;;;;;0.10;0.10;;;;;;;;;;5077404;28;20020;-64
2024/03/15 08:24:18;;;;;;;0.03;0.03;;;;;;;;;;5093034;28;20030;-64
2024/03/15 08:26:43;;;;;;;0.37;0.30;;;;;;;;;;5084237;28;20039;-64
2024/03/15 08:29:09;;;;;;;0.00;0.00;;;;;;;;;;5093297;28;20091;-63
2024/03/15 08:31:34;;;;;;;0.20;0.20;;;;;;;;;;5092905;28;20059;-64
2024/03/15 08:34:02;;;;;;;0.30;0.30;;;;;;;;;;5092348;28;20028;-64
2024/03/15 08:36:36;;;;;;;0.20;0.20;;;;;;;;;;5086124;28;20024;-64
2024/03/15 08:39:03;;;;;;;0.10;0.10;;;;;;;;;;5076793;28;20030;-64
2024/03/15 08:41:28;;;;;;;0.15;0.15;;;;;;;;;;5080249;28;20036;-64
2024/03/15 08:43:54;;;;;;;0.10;0.10;;;;;;;;;;5083196;28;20016;-65
2024/03/15 08:46:20;;;;;;;0.00;0.00;;;;;;;;;;5086097;28;20016;-64
2024/03/15 08:48:45;;;;;;;0.08;0.08;;;;;;;;;;5092768;28;20016;-64
2024/03/15 08:51:12;;;;;;;0.10;0.10;;;;;;;;;;5090899;28;20032;-64
2024/03/15 08:53:37;;;;;;;0.50;0.50;;;;;;;;;;5087152;28;20050;-64
2024/03/15 08:56:03;;;;;;;0.00;0.00;;;;;;;;;;5084470;28;20028;-64
2024/03/15 08:58:28;;;;;;;0.28;0.25;;;;;;;;;;5084588;28;20384;-64
2024/03/15 09:00:57;;;;;;;0.10;0.10;;;;;;;;;;5093063;28;20024;-64
2024/03/15 09:03:22;;;;;;;0.10;0.10;;;;;;;;;;5092304;28;20791;-64
2024/03/15 09:05:47;;;;;;;0.00;0.00;;;;;;;;;;5089187;28;20016;-70
2024/03/15 09:08:13;;;;;;;0.10;0.10;;;;;;;;;;5080737;28;20020;-71
2024/03/15 09:10:39;;;;;;;0.10;0.10;;;;;;;;;;5082793;28;20260;-71
2024/03/15 09:13:05;;;;;;;0.05;0.05;;;;;;;;;;5081840;28;20021;-71
2024/03/15 09:15:31;;;;;;;0.10;0.10;;;;;;;;;;5088183;28;20016;-71
2024/03/15 09:17:58;;;;;;;0.15;0.15;;;;;;;;;;5083415;28;20266;-70
2024/03/15 09:20:33;;;;;;;0.52;0.38;;;;;;;;;;5088212;28;20020;-70
2024/03/15 09:22:58;;;;;;;0.30;0.30;;;;;;;;;;5086724;28;20099;-69
2024/03/15 09:25:25;;;;;;;0.30;0.30;;;;;;;;;;5081819;28;20107;-71
2024/03/15 09:27:53;;;;;;;0.08;0.08;;;;;;;;;;5087060;28;20263;-69
2024/03/15 09:30:36;;;;;;;0.38;0.38;;;;;;;;;;5087846;28;20027;-70
2024/03/15 09:33:02;;;;;;;;;;;;;;;;;;5093293;28;20047;-70
2024/03/15 09:35:28;;;;;;;0.22;0.22;;;;;;;;;;5096730;28;19915;-71
2024/03/15 09:37:53;;;;;;;0.10;0.10;;;;;;;;;;5088210;28;20020;-70
2024/03/15 09:40:20;;;;;;;0.20;0.20;;;;;;;;;;5092225;28;20033;-71
2024/03/15 09:42:48;;;;;;;0.30;0.30;;;;;;;;;;5086048;28;20783;-70
2024/03/15 09:45:16;;;;;;;0.40;0.40;;;;;;;;;;5088530;28;20467;-71
2024/03/15 09:47:41;;;;;;;0.82;0.75;;;;;;;;;;5091991;28;20051;-71
2024/03/15 09:50:11;;;;;;;0.57;0.50;;;;;;;;;;5096531;28;20062;-71
2024/03/15 09:52:37;;;;;;;0.10;0.10;;;;;;;;;;5085606;28;20025;-71
2024/03/15 09:55:04;;;;;;;0.80;0.47;;;;;;;;;;5106820;28;20077;-71
2024/03/15 09:57:29;;;;;;;1.02;0.45;;;;;;;;;;5115003;28;20020;-70
2024/03/15 09:59:55;;;;;;;0.63;0.52;;;;;;;;;;5087538;28;20421;-71
2024/03/15 10:02:23;;;;;;;0.17;0.17;;;;;;;;;;5080423;28;20020;-70
2024/03/15 10:04:51;;;;;;;0.22;0.22;;;;;;;;;;5099184;28;20024;-70
2024/03/15 10:07:16;;;;;;;0.77;0.77;;;;;;;;;;5082025;28;20020;-71
2024/03/15 10:09:41;;;;;;;0.03;0.03;;;;;;;;;;5099177;28;20101;-71
2024/03/15 10:12:09;;;;;;;0.40;0.40;;;;;;;;;;5116381;28;20252;-71
2024/03/15 10:14:35;;;;;;;0.65;0.55;;;;;;;;;;5097870;28;20031;-71
2024/03/15 10:17:01;;;;;;;0.17;0.17;;;;;;;;;;5095419;28;20033;-64
2024/03/15 10:19:28;;;;;;;0.20;0.20;;;;;;;;;;5095996;28;20024;-64
2024/03/15 10:21:57;;;;;;;0.10;0.10;;;;;;;;;;5096113;28;20471;-64
2024/03/15 10:24:24;;;;;;;0.10;0.10;;;;;;;;;;5087062;28;20024;-64
2024/03/15 10:26:49;;;;;;;0.15;0.15;;;;;;;;;;5087841;28;20027;-64
2024/03/15 10:29:14;;;;;;;0.20;0.20;;;;;;;;;;5091557;28;20020;-64
2024/03/15 10:31:41;;;;;;;0.03;0.03;;;;;;;;;;5091013;28;20040;-64
2024/03/15 10:34:10;;;;;;;0.00;0.00;;;;;;;;;;5095289;28;20627;-64
2024/03/15 10:36:35;;;;;;;0.38;0.38;;;;;;;;;;5095783;28;20111;-64
2024/03/15 10:39:00;;;;;;;0.30;0.30;;;;;;;;;;5088935;28;20054;-64
2024/03/15 10:41:27;;;;;;;0.03;0.03;;;;;;;;;;5095305;28;20272;-64
2024/03/15 10:43:53;;;;;;;0.10;0.10;;;;;;;;;;5094980;28;20824;-64
2024/03/15 10:46:18;;;;;;;0.50;0.50;;;;;;;;;;5093477;28;20056;-64
2024/03/15 10:48:44;;;;;;;0.30;0.30;;;;;;;;;;5087280;28;20054;-64
2024/03/15 10:51:10;;;;;;;0.20;0.20;;;;;;;;;;5095376;28;20027;-64
2024/03/15 10:53:35;;;;;;;0.20;0.20;;;;;;;;;;5084603;28;20024;-64
2024/03/15 10:56:04;;;;;;;0.90;0.40;;;;;;;;;;5080766;28;20077;-64
2024/03/15 10:58:29;;;;;;;0.38;0.38;;;;;;;;;;5085312;28;20476;-64
2024/03/15 11:00:55;;;;;;;0.28;0.28;;;;;;;;;;5088625;28;20107;-64
2024/03/15 11:03:25;;;;;;;2.38;1.20;;;;;;;;;;5089928;28;20069;-64
2024/03/15 11:05:50;;;;;;;0.25;0.20;;;;;;;;;;5081032;28;20028;-64
2024/03/15 11:08:24;;;;;;;0.20;0.20;;;;;;;;;;5099217;28;20383;-64
2024/03/15 11:11:02;;;;;;;1.75;0.32;;;;;;;;;;5115594;28;20032;-64
2024/03/15 11:13:32;;;;;;;0.20;0.20;;;;;;;;;;5074980;28;20121;-64
2024/03/15 11:15:57;;;;;;;0.20;0.20;;;;;;;;;;5075369;28;20088;-64
2024/03/15 11:18:22;;;;;;;0.33;0.33;;;;;;;;;;5077695;28;20523;-64
2024/03/15 11:20:54;;;;;;;0.50;0.50;;;;;;;;;;5074626;28;20021;-64
2024/03/15 11:23:23;;;;;;;0.20;0.20;;;;;;;;;;5074450;28;20377;-64
2024/03/15 11:26:06;;;;;;;0.20;0.20;;;;;;;;;;5074724;28;20048;-64
2024/03/15 11:28:32;;;;;;;0.47;0.47;;;;;;;;;;5074455;28;20013;-64
2024/03/15 11:30:57;;;;;;;2.17;0.60;;;;;;;;;;5073582;28;20099;-65
2024/03/15 11:33:24;;;;;;;0.15;0.15;;;;;;;;;;5078697;28;20424;-64
2024/03/15 11:35:51;;;;;;;0.30;0.30;;;;;;;;;;5094863;28;20016;-64
2024/03/15 11:38:17;;;;;;;0.30;0.30;;;;;;;;;;5094663;28;20024;-64
2024/03/15 11:40:42;;;;;;;0.40;0.40;;;;;;;;;;5094653;28;20043;-64
2024/03/15 11:43:08;;;;;;;0.28;0.15;;;;;;;;;;5094460;28;20015;-64
2024/03/15 11:45:34;;;;;;;0.28;0.28;;;;;;;;;;5093850;28;20095;-64
2024/03/15 11:47:59;;;;;;;0.50;0.50;;;;;;;;;;5094038;28;20068;-65
2024/03/15 11:50:24;;;;;;;0.10;0.10;;;;;;;;;;5093529;28;20023;-64
2024/03/15 11:52:57;;;;;;;0.20;0.20;;;;;;;;;;5093956;28;20020;-64
2024/03/15 11:55:22;;;;;;;0.95;0.50;;;;;;;;;;5094405;28;20479;-64
2024/03/15 11:57:47;;;;;;;0.40;0.40;;;;;;;;;;5094085;28;20076;-64
2024/03/15 12:00:16;;;;;;;0.50;0.50;;;;;;;;;;5093304;28;20016;-64
2024/03/15 12:02:41;;;;;;;0.10;0.10;;;;;;;;;;5093901;28;20020;-64
2024/03/15 12:05:11;;;;;;;0.20;0.20;;;;;;;;;;5093659;28;20039;-64
2024/03/15 12:07:36;;;;;;;0.47;0.47;;;;;;;;;;5094100;28;20012;-64
2024/03/15 12:10:03;;;;;;;0.05;0.05;;;;;;;;;;5093890;28;20035;-64
2024/03/15 12:12:29;;;;;;;1.58;0.63;;;;;;;;;;5093995;28;20367;-64
2024/03/15 12:14:55;;;;;;;0.63;0.60;;;;;;;;;;5093131;28;20104;-64
2024/03/15 12:17:22;;;;;;;0.57;0.57;;;;;;;;;;5093386;28;20099;-64
2024/03/15 12:19:49;;;;;;;0.30;0.30;;;;;;;;;;5093587;28;20030;-64
2024/03/15 12:22:14;;;;;;;0.38;0.38;;;;;;;;;;5093652;28;20529;-64
2024/03/15 12:24:39;;;;;;;0.00;0.00;;;;;;;;;;5093616;28;20011;-64
2024/03/15 12:27:08;;;;;;;0.20;0.20;;;;;;;;;;5093302;28;20290;-64
2024/03/15 12:29:33;;;;;;;0.73;0.73;;;;;;;;;;5089772;28;20028;-64
2024/03/15 12:31:58;;;;;;;0.10;0.10;;;;;;;;;;5109173;28;20050;-64
2024/03/15 12:34:23;;;;;;;0.83;0.40;;;;;;;;;;5100278;28;20253;-64
2024/03/15 12:36:49;;;;;;;0.23;0.13;;;;;;;;;;5093515;28;20387;-71
2024/03/15 12:39:14;;;;;;;0.90;0.90;;;;;;;;;;5088969;28;20806;-71
2024/03/15 12:41:41;;;;;;;0.08;0.08;;;;;;;;;;5093427;28;20036;-71
2024/03/15 12:44:08;;;;;;;0.25;0.22;;;;;;;;;;5092926;28;20483;-71
2024/03/15 12:46:33;;;;;;;0.50;0.30;;;;;;;;;;5093150;28;20475;-72
2024/03/15 12:48:58;;;;;;;2.63;0.75;;;;;;;;;;5085750;28;20016;-70
2024/03/15 12:51:23;;;;;;;0.10;0.10;;;;;;;;;;5093033;28;20040;-71
2024/03/15 12:53:49;;;;;;;1.05;0.60;;;;;;;;;;5093274;28;20490;-71
2024/03/15 12:56:14;;;;;;;0.30;0.30;;;;;;;;;;5093082;28;20016;-72
2024/03/15 12:58:39;;;;;;;0.73;0.70;;;;;;;;;;5093285;28;20253;-72
2024/03/15 13:01:07;;;;;;;0.10;0.10;;;;;;;;;;5092444;28;20081;-71
2024/03/15 13:03:33;;;;;;;0.30;0.30;;;;;;;;;;5084973;28;20024;-71
2024/03/15 13:05:58;;;;;;;0.28;0.28;;;;;;;;;;5092961;28;20020;-71
2024/03/15 13:08:23;;;;;;;0.83;0.30;;;;;;;;;;5076105;28;20016;-71
2024/03/15 13:10:48;;;;;;;0.00;0.00;;;;;;;;;;5093166;28;20020;-70
2024/03/15 13:13:14;;;;;;;0.30;0.20;;;;;;;;;;5084746;28;20036;-71
2024/03/15 13:15:39;;;;;;;0.47;0.30;;;;;;;;;;5092560;28;20024;-71
2024/03/15 13:18:04;;;;;;;0.10;0.10;;;;;;;;;;5084437;28;20033;-71
2024/03/15 13:20:30;;;;;;;15.53;0.57;;;;;;;;;;5092633;28;20028;-71
2024/03/15 13:22:55;;;;;;;0.20;0.20;;;;;;;;;;5092478;28;20326;-70
2024/03/15 13:25:22;;;;;;;1.88;0.70;;;;;;;;;;5087201;28;20017;-70
2024/03/15 13:27:47;;;;;;;0.00;0.00;;;;;;;;;;5081843;28;20021;-69
2024/03/15 13:30:16;;;;;;;0.55;0.55;;;;;;;;;;5091894;28;20016;-71
2024/03/15 13:32:42;;;;;;;0.00;0.00;;;;;;;;;;5076502;28;20029;-71
2024/03/15 13:35:18;;;;;;;0.10;0.10;;;;;;;;;;5080256;28;20086;-71
2024/03/15 13:37:44;;;;;;;6.03;0.50;;;;;;;;;;5081475;28;20020;-71
2024/03/15 13:40:15;;;;;;;0.32;0.30;;;;;;;;;;5090470;28;20443;-71
2024/03/15 13:42:41;;;;;;;0.10;0.10;;;;;;;;;;5079632;28;20033;-71
2024/03/15 13:45:07;;;;;;;0.00;0.00;;;;;;;;;;5080872;28;20048;-71
2024/03/15 13:47:32;;;;;;;0.15;0.15;;;;;;;;;;5077692;28;20038;-71
2024/03/15 13:50:15;;;;;;;0.20;0.20;;;;;;;;;;5077603;28;20052;-71
2024/03/15 13:52:40;;;;;;;0.10;0.10;;;;;;;;;;5082645;28;20028;-71
2024/03/15 13:55:08;;;;;;;0.32;0.15;;;;;;;;;;5092217;28;20103;-72
2024/03/15 13:57:35;;;;;;;0.10;0.10;;;;;;;;;;5092348;28;20024;-71
2024/03/15 14:00:00;;;;;;;0.10;0.10;;;;;;;;;;5087980;28;20076;-71
2024/03/15 14:02:25;;;;;;;0.10;0.10;;;;;;;;;;5092375;28;20103;-71
2024/03/15 14:04:50;;;;;;;0.10;0.10;;;;;;;;;;5092198;28;20481;-71
2024/03/15 14:07:16;;;;;;;0.00;0.00;;;;;;;;;;5082981;28;20012;-71
2024/03/15 14:09:41;;;;;;;0.10;0.10;;;;;;;;;;5084007;28;20019;-71
2024/03/15 14:12:08;;;;;;;0.37;0.30;;;;;;;;;;5075859;28;20070;-71
2024/03/15 14:14:33;;;;;;;0.68;0.60;;;;;;;;;;5093593;28;20388;-72
2024/03/15 14:16:59;;;;;;;0.97;0.50;;;;;;;;;;5093286;28;20028;-70
2024/03/15 14:19:24;;;;;;;0.10;0.10;;;;;;;;;;5096228;28;20054;-71
2024/03/15 14:21:49;;;;;;;0.10;0.10;;;;;;;;;;5094592;28;20054;-71
2024/03/15 14:24:14;;;;;;;0.07;0.07;;;;;;;;;;5095648;28;20054;-71
2024/03/15 14:26:39;;;;;;;0.00;0.00;;;;;;;;;;5087769;28;20116;-71
2024/03/15 14:29:07;;;;;;;2.43;0.37;;;;;;;;;;5082126;28;20013;-70
2024/03/15 14:31:32;;;;;;;0.00;0.00;;;;;;;;;;5088624;28;20272;-71
2024/03/15 14:33:57;;;;;;;0.17;0.17;;;;;;;;;;5087885;28;20369;-70
2024/03/15 14:36:23;;;;;;;0.10;0.10;;;;;;;;;;5090470;28;20055;-71
2024/03/15 14:38:50;;;;;;;0.13;0.13;;;;;;;;;;5092574;28;20099;-70
2024/03/15 14:41:16;;;;;;;0.10;0.10;;;;;;;;;;5087432;28;20031;-71
2024/03/15 14:43:41;;;;;;;0.10;0.10;;;;;;;;;;5094844;28;20012;-71